Time;durP1;ratioP1;P1;durP2;ratioP2;P2;SDS_P1;SDS_P2;PMS_P1;PMS_P2;Temp;Humidity;BMP_temperature;BMP_pressure;BME280_temperature;BME280_humidity;BME280_pressure;Samples;Min_cycle;Max_cycle;Signal;HPM_P1;HPM_P2
2020/12/13 00:00:14;;;;;;;40.03;22.35;;;;;;;1.53;82.38;95659.83;1742723;80;21129;-85
2020/12/13 00:02:42;;;;;;;41.75;23.55;;;;;;;1.56;82.32;95663.38;1744746;82;21098;-85
2020/12/13 00:05:08;;;;;;;40.70;24.00;;;;;;;1.58;82.41;95670.44;1726579;81;21122;-85
2020/12/13 00:07:34;;;;;;;47.10;25.02;;;;;;;1.60;82.35;95669.00;1743336;82;21111;-85
2020/12/13 00:10:01;;;;;;;44.80;26.23;;;;;;;1.58;82.48;95669.63;1727560;81;21248;-84
2020/12/13 00:12:28;;;;;;;47.33;26.50;;;;;;;1.59;82.54;95664.84;1739218;82;21475;-85
2020/12/13 00:14:54;;;;;;;43.52;25.55;;;;;;;1.58;82.48;95667.06;1710078;82;21371;-85
2020/12/13 00:17:20;;;;;;;44.95;26.10;;;;;;;1.57;82.44;95677.78;1734107;82;21313;-84
2020/12/13 00:19:46;;;;;;;48.60;26.93;;;;;;;1.62;82.44;95676.88;1728889;82;21090;-85
2020/12/13 00:22:14;;;;;;;49.18;29.02;;;;;;;1.63;82.39;95677.23;1746459;80;21224;-85
2020/12/13 00:24:40;;;;;;;53.23;29.40;;;;;;;1.63;82.38;95679.79;1738037;80;21115;-85
2020/12/13 00:27:06;;;;;;;45.90;25.88;;;;;;;1.65;82.36;95679.17;1741151;81;21114;-84
2020/12/13 00:29:32;;;;;;;52.10;26.48;;;;;;;1.65;82.43;95679.64;1728019;82;21117;-85
2020/12/13 00:31:58;;;;;;;37.53;21.48;;;;;;;1.58;82.36;95682.43;1729101;82;21106;-84
2020/12/13 00:34:24;;;;;;;32.85;19.82;;;;;;;1.49;82.18;95690.52;1737955;82;21317;-85
2020/12/13 00:36:51;;;;;;;36.73;22.48;;;;;;;1.40;82.29;95687.03;1736897;82;21228;-85
2020/12/13 00:39:18;;;;;;;36.60;21.93;;;;;;;1.29;82.28;95687.20;1733296;80;21094;-85
2020/12/13 00:41:53;;;;;;;39.58;22.30;;;;;;;1.28;82.76;95688.63;1745087;80;21252;-85
2020/12/13 00:44:19;;;;;;;43.08;25.05;;;;;;;1.32;82.76;95696.38;1750925;80;21130;-86
2020/12/13 00:46:46;;;;;;;38.35;21.50;;;;;;;1.36;82.82;95698.52;1745307;80;21122;-86
2020/12/13 00:49:12;;;;;;;37.13;21.87;;;;;;;1.37;82.70;95694.20;1726821;82;21110;-86
2020/12/13 00:51:38;;;;;;;37.25;22.30;;;;;;;1.39;82.66;95705.09;1747429;80;21122;-86
2020/12/13 00:54:04;;;;;;;38.35;22.13;;;;;;;1.43;82.63;95707.70;1739068;82;21086;-86
2020/12/13 00:56:30;;;;;;;38.35;22.10;;;;;;;1.49;82.64;95704.59;1745737;82;21138;-86
2020/12/13 00:58:56;;;;;;;42.20;23.85;;;;;;;1.47;82.53;95697.53;1734123;82;21098;-86
2020/12/13 01:01:23;;;;;;;39.98;22.27;;;;;;;1.45;82.51;95709.64;1736421;81;21125;-86
2020/12/13 01:03:49;;;;;;;37.75;21.87;;;;;;;1.42;82.57;95708.65;1754289;80;21129;-86
2020/12/13 01:06:22;;;;;;;35.15;20.00;;;;;;;1.41;82.64;95707.04;1758796;80;21112;-86
2020/12/13 01:08:49;;;;;;;37.70;18.00;;;;;;;1.39;82.62;95709.74;1749416;80;21408;-86
2020/12/13 01:11:28;;;;;;;32.63;18.85;;;;;;;1.40;82.53;95701.11;1752700;80;21550;-86
2020/12/13 01:13:54;;;;;;;33.55;18.07;;;;;;;1.40;82.54;95702.87;1760127;80;21153;-86
2020/12/13 01:16:20;;;;;;;31.70;17.98;;;;;;;1.38;82.55;95703.02;1766096;80;21150;-87
2020/12/13 01:18:47;;;;;;;34.78;19.62;;;;;;;1.35;82.60;95702.50;1761952;80;21090;-87
2020/12/13 01:21:23;;;;;;;29.92;18.27;;;;;;;1.29;82.66;95711.52;1757436;80;22035;-86
2020/12/13 01:23:49;;;;;;;30.32;18.60;;;;;;;1.27;82.73;95712.62;1758649;80;21237;-86
2020/12/13 01:26:19;;;;;;;30.50;16.95;;;;;;;1.27;82.72;95710.86;1763830;80;21154;-86
2020/12/13 01:28:46;;;;;;;30.92;17.75;;;;;;;1.28;82.69;95715.03;1757345;80;21150;-85
2020/12/13 01:31:15;;;;;;;30.82;19.12;;;;;;;1.27;82.63;95710.86;1758955;80;21073;-86
2020/12/13 01:33:43;;;;;;;31.07;18.23;;;;;;;1.26;82.75;95719.96;1691166;84;21589;-86
2020/12/13 01:36:13;;;;;;;29.77;16.52;;;;;;;1.25;82.81;95722.19;1764012;80;21102;-86
2020/12/13 01:38:40;;;;;;;26.62;16.25;;;;;;;1.23;82.88;95715.13;1761529;80;21431;-85
2020/12/13 01:41:06;;;;;;;28.05;15.65;;;;;;;1.23;82.98;95717.22;1760155;80;21116;-85
2020/12/13 01:43:32;;;;;;;25.15;16.07;;;;;;;1.23;82.89;95715.94;1757915;80;21149;-86
2020/12/13 01:45:58;;;;;;;24.82;15.45;;;;;;;1.24;82.92;95718.02;1754242;80;21344;-86
2020/12/13 01:48:24;;;;;;;26.00;16.10;;;;;;;1.28;82.92;95717.59;1755172;80;21247;-86
2020/12/13 01:51:10;;;;;;;24.98;15.78;;;;;;;1.31;82.92;95714.78;1763045;80;21134;-86
2020/12/13 01:53:33;;;;;;;25.20;15.70;;;;;;;1.31;82.96;95708.38;1761772;80;21241;-86
2020/12/13 01:55:59;;;;;;;26.30;15.78;;;;;;;1.32;82.90;95710.46;1758864;80;21108;-85
2020/12/13 01:58:28;;;;;;;23.65;14.90;;;;;;;1.35;83.09;95702.50;1762683;80;21097;-86
2020/12/13 02:00:56;;;;;;;22.75;14.70;;;;;;;1.40;82.86;95706.23;1758277;80;21422;-86
2020/12/13 02:03:29;;;;;;;27.05;15.38;;;;;;;1.45;82.75;95705.80;1761755;80;21153;-86
2020/12/13 02:06:05;;;;;;;20.60;14.00;;;;;;;1.48;82.76;95712.75;1758922;80;21157;-86
2020/12/13 02:08:40;;;;;;;23.35;14.80;;;;;;;1.49;82.69;95710.52;1760804;80;21332;-87
2020/12/13 02:11:08;;;;;;;23.55;13.98;;;;;;;1.47;82.59;95709.86;1761792;80;21253;-86
2020/12/13 02:13:34;;;;;;;26.02;15.18;;;;;;;1.37;82.62;95709.55;1693142;84;21166;-86
2020/12/13 02:16:00;;;;;;;21.57;12.58;;;;;;;1.40;82.95;95717.75;1756350;81;21119;-87
2020/12/13 02:18:29;;;;;;;20.92;13.25;;;;;;;1.42;82.70;95716.33;1752026;81;21133;-87
2020/12/13 02:20:56;;;;;;;21.40;14.45;;;;;;;1.42;82.55;95713.30;1749539;81;21137;-86
2020/12/13 02:23:23;;;;;;;22.48;13.20;;;;;;;1.43;82.50;95716.19;1740744;81;21122;-86
2020/12/13 02:25:49;;;;;;;20.20;13.70;;;;;;;1.44;82.58;95716.52;1754274;81;21118;-87
2020/12/13 02:28:15;;;;;;;20.15;13.40;;;;;;;1.47;82.67;95721.38;1750275;81;21149;-86
2020/12/13 02:30:42;;;;;;;19.12;12.43;;;;;;;1.48;82.65;95721.70;1716697;81;21241;-86
2020/12/13 02:33:08;;;;;;;21.85;13.62;;;;;;;1.49;82.63;95721.23;1749474;81;21134;-86
2020/12/13 02:35:34;;;;;;;22.00;12.78;;;;;;;1.52;82.57;95724.78;1752447;81;21334;-87
2020/12/13 02:38:00;;;;;;;21.02;12.95;;;;;;;1.56;82.48;95720.18;1750725;81;21118;-86
2020/12/13 02:40:26;;;;;;;21.40;14.18;;;;;;;1.58;82.51;95717.80;1692182;83;21244;-86
2020/12/13 02:42:52;;;;;;;21.20;13.88;;;;;;;1.65;82.73;95720.14;1756846;80;21151;-85
2020/12/13 02:45:18;;;;;;;21.50;12.28;;;;;;;1.70;82.70;95716.67;1764048;80;21106;-86
2020/12/13 02:47:44;;;;;;;23.75;14.80;;;;;;;1.69;82.42;95717.62;1760754;80;21115;-86
2020/12/13 02:50:11;;;;;;;20.35;12.50;;;;;;;1.63;82.36;95718.20;1757605;80;21130;-86
2020/12/13 02:52:37;;;;;;;19.98;13.10;;;;;;;1.59;82.18;95722.45;1692817;84;21621;-86
2020/12/13 02:55:04;;;;;;;18.87;13.25;;;;;;;1.59;82.22;95716.05;1702823;83;21344;-86
2020/12/13 02:57:30;;;;;;;19.05;12.60;;;;;;;1.60;82.11;95722.78;1708906;83;21118;-86
2020/12/13 02:59:56;;;;;;;23.98;13.43;;;;;;;1.60;82.26;95721.50;1685371;83;21150;-86
2020/12/13 03:02:22;;;;;;;20.90;12.98;;;;;;;1.63;82.34;95721.23;1759951;80;21131;-87
2020/12/13 03:04:48;;;;;;;22.15;12.82;;;;;;;1.66;82.34;95731.19;1757562;80;21251;-86
2020/12/13 03:07:14;;;;;;;21.33;13.10;;;;;;;1.64;82.30;95727.97;1760289;80;21097;-86
2020/12/13 03:09:40;;;;;;;23.73;14.87;;;;;;;1.65;82.29;95731.66;1687834;84;21273;-86
2020/12/13 03:12:06;;;;;;;22.85;12.60;;;;;;;1.67;82.24;95740.02;1759912;81;21107;-86
2020/12/13 03:14:32;;;;;;;18.12;11.75;;;;;;;1.61;82.02;95730.79;1742389;81;21237;-86
2020/12/13 03:16:58;;;;;;;21.23;13.75;;;;;;;1.57;82.05;95734.59;1750212;81;21123;-86
2020/12/13 03:19:24;;;;;;;21.50;13.85;;;;;;;1.53;82.18;95734.55;1747882;81;21117;-86
2020/12/13 03:21:50;;;;;;;22.02;14.10;;;;;;;1.49;82.13;95734.84;1742273;81;21099;-86
2020/12/13 03:24:16;;;;;;;22.40;13.93;;;;;;;1.48;82.24;95742.19;1693543;83;21153;-86
2020/12/13 03:26:43;;;;;;;20.27;12.13;;;;;;;1.45;82.10;95740.36;1762875;80;21110;-86
2020/12/13 03:29:09;;;;;;;19.25;12.63;;;;;;;1.43;82.00;95740.98;1762080;80;21123;-85
2020/12/13 03:31:36;;;;;;;19.20;13.55;;;;;;;1.41;82.03;95745.44;1764271;80;21502;-86
2020/12/13 03:34:02;;;;;;;22.40;12.88;;;;;;;1.38;82.07;95752.93;1759481;80;21249;-86
2020/12/13 03:36:28;;;;;;;21.45;13.75;;;;;;;1.37;82.16;95749.23;1760610;80;21126;-86
2020/12/13 03:38:54;;;;;;;19.23;12.47;;;;;;;1.36;82.31;95751.46;1759522;80;21106;-86
2020/12/13 03:41:20;;;;;;;21.15;13.30;;;;;;;1.38;82.43;95753.41;1767943;80;21333;-86
2020/12/13 03:43:47;;;;;;;23.55;14.10;;;;;;;1.43;82.44;95749.94;1688202;83;21408;-87
2020/12/13 03:46:13;;;;;;;21.93;13.98;;;;;;;1.47;82.34;95753.85;1704659;83;21169;-86
2020/12/13 03:48:39;;;;;;;20.52;12.78;;;;;;;1.51;82.27;95761.58;1684299;83;21156;-86
2020/12/13 03:51:05;;;;;;;21.50;14.73;;;;;;;1.53;82.27;95760.16;1688398;83;21134;-86
2020/12/13 03:53:31;;;;;;;22.48;13.30;;;;;;;1.53;82.37;95760.16;1715623;83;21596;-86
2020/12/13 03:55:57;;;;;;;21.55;13.72;;;;;;;1.52;82.32;95763.66;1746299;81;21250;-87
2020/12/13 03:58:23;;;;;;;19.70;13.00;;;;;;;1.49;82.28;95765.56;1751479;81;21459;-86
2020/12/13 04:00:49;;;;;;;18.17;13.72;;;;;;;1.46;82.30;95763.73;1721444;83;21176;-86
2020/12/13 04:03:15;;;;;;;18.73;12.15;;;;;;;1.48;82.31;95766.98;1719092;83;21364;-86
2020/12/13 04:05:42;;;;;;;17.42;12.95;;;;;;;1.47;82.12;95770.02;1720064;83;21119;-86
2020/12/13 04:08:08;;;;;;;18.32;12.35;;;;;;;1.43;82.15;95757.62;1714367;83;21124;-85
2020/12/13 04:10:34;;;;;;;19.25;12.45;;;;;;;1.42;82.10;95762.41;1710960;83;21126;-86
2020/12/13 04:13:00;;;;;;;20.55;12.65;;;;;;;1.42;82.18;95773.92;1701597;83;21257;-86
2020/12/13 04:15:26;;;;;;;18.15;11.33;;;;;;;1.38;82.21;95773.41;1698804;83;21146;-85
2020/12/13 04:17:52;;;;;;;19.07;11.63;;;;;;;1.32;82.15;95770.14;1705196;83;21326;-86
2020/12/13 04:20:18;;;;;;;17.45;11.53;;;;;;;1.33;82.04;95777.34;1745164;81;21109;-85
2020/12/13 04:22:44;;;;;;;15.45;10.72;;;;;;;1.36;82.12;95772.75;1750687;81;21324;-86
2020/12/13 04:25:11;;;;;;;15.48;10.95;;;;;;;1.37;82.08;95778.20;1702100;83;21455;-85
2020/12/13 04:27:37;;;;;;;16.55;11.97;;;;;;;1.36;82.14;95774.50;1718300;83;21121;-85
2020/12/13 04:30:05;;;;;;;19.80;11.73;;;;;;;1.32;81.96;95773.98;1734827;82;21121;-85
2020/12/13 04:32:31;;;;;;;16.52;11.40;;;;;;;1.29;81.91;95777.27;1741350;81;21289;-86
2020/12/13 04:34:58;;;;;;;18.82;10.88;;;;;;;1.31;82.04;95783.08;1713818;83;21135;-86
2020/12/13 04:37:24;;;;;;;17.62;11.70;;;;;;;1.34;82.05;95784.08;1753312;81;21131;-85
2020/12/13 04:39:52;;;;;;;16.62;12.37;;;;;;;1.38;81.90;95791.80;1744802;81;21145;-85
2020/12/13 04:42:19;;;;;;;17.25;11.43;;;;;;;1.35;81.61;95785.21;1737411;81;21122;-86
2020/12/13 04:44:46;;;;;;;13.83;10.30;;;;;;;1.28;81.81;95785.41;1749992;81;21142;-85
2020/12/13 04:47:17;;;;;;;16.55;12.25;;;;;;;1.21;81.78;95788.20;1746719;81;21527;-85
2020/12/13 04:49:49;;;;;;;16.97;13.13;;;;;;;1.10;81.69;95792.20;1699484;83;21243;-86
2020/12/13 04:52:16;;;;;;;16.35;10.93;;;;;;;1.08;81.82;95785.94;1706346;83;21146;-85
2020/12/13 04:54:49;;;;;;;19.85;11.85;;;;;;;1.11;81.93;95785.66;1700073;83;21475;-85
2020/12/13 04:57:19;;;;;;;16.55;11.08;;;;;;;1.17;81.91;95794.08;1750665;81;21380;-85
2020/12/13 04:59:49;;;;;;;18.15;12.55;;;;;;;1.19;81.91;95791.38;1694927;83;21670;-86
2020/12/13 05:02:15;;;;;;;17.40;11.88;;;;;;;1.19;81.96;95793.94;1702697;83;21163;-85
2020/12/13 05:04:42;;;;;;;17.25;11.83;;;;;;;1.17;81.96;95798.39;1747674;81;21083;-86
2020/12/13 05:07:09;;;;;;;18.80;11.48;;;;;;;1.21;81.90;95801.00;1747064;81;21167;-85
2020/12/13 05:09:35;;;;;;;18.45;12.25;;;;;;;1.19;81.84;95802.90;1755940;80;21252;-87
2020/12/13 05:12:01;;;;;;;19.48;11.63;;;;;;;1.20;81.76;95813.47;1750281;81;22110;-86
2020/12/13 05:14:27;;;;;;;17.05;10.98;;;;;;;1.19;81.82;95805.45;1742077;81;21555;-86
2020/12/13 05:17:10;;;;;;;17.15;12.05;;;;;;;1.17;81.79;95804.80;1745859;81;21125;-86
2020/12/13 05:19:37;;;;;;;18.25;12.98;;;;;;;1.14;81.83;95817.87;1705492;83;21149;-85
2020/12/13 05:22:03;;;;;;;20.17;14.15;;;;;;;1.14;81.96;95818.67;1741994;81;21118;-85
2020/12/13 05:24:30;;;;;;;17.10;11.05;;;;;;;1.15;81.90;95822.84;1720310;83;21132;-86
2020/12/13 05:27:05;;;;;;;16.95;11.75;;;;;;;1.18;81.84;95815.36;1719781;83;21267;-86
2020/12/13 05:29:33;;;;;;;16.87;11.65;;;;;;;1.20;81.92;95819.86;1710881;83;21119;-86
2020/12/13 05:32:20;;;;;;;18.42;11.93;;;;;;;1.22;81.90;95822.28;1716116;83;21267;-86
2020/12/13 05:34:48;;;;;;;17.07;11.78;;;;;;;1.23;81.92;95826.45;1714071;83;21148;-86
2020/12/13 05:37:15;;;;;;;15.45;11.50;;;;;;;1.23;81.88;95825.17;1721655;83;21128;-85
2020/12/13 05:39:50;;;;;;;17.60;12.70;;;;;;;1.27;81.86;95830.34;1706733;83;21142;-85
2020/12/13 05:42:34;;;;;;;17.48;11.15;;;;;;;1.29;81.65;95838.69;1743231;81;21111;-85
2020/12/13 05:52:49;;;;;;;16.00;11.55;;;;;;;1.02;81.48;95847.09;1733235;81;21151;-85
2020/12/13 05:55:15;;;;;;;17.92;12.73;;;;;;;1.00;81.61;95841.31;1695919;84;21355;-85
2020/12/13 05:57:42;;;;;;;17.42;11.08;;;;;;;1.03;81.77;95844.88;1735080;81;21260;-86
2020/12/13 06:00:08;;;;;;;17.12;12.30;;;;;;;1.07;81.73;95841.09;1695026;84;21089;-85
2020/12/13 06:02:36;;;;;;;17.70;12.65;;;;;;;1.07;81.69;95848.77;1759955;80;21138;-85
2020/12/13 06:05:04;;;;;;;19.42;12.50;;;;;;;1.08;81.77;95852.46;1752536;80;21260;-85
2020/12/13 06:07:33;;;;;;;18.75;11.95;;;;;;;1.10;81.92;95845.92;1690645;84;21381;-85
2020/12/13 06:10:05;;;;;;;18.37;12.70;;;;;;;1.06;81.72;95840.28;1759264;80;21116;-85
2020/12/13 06:12:31;;;;;;;18.20;12.82;;;;;;;1.11;81.52;95848.34;1773033;80;21126;-85
2020/12/13 06:14:59;;;;;;;18.40;12.93;;;;;;;1.10;81.49;95854.41;1730109;81;21117;-85
2020/12/13 06:17:27;;;;;;;18.92;12.35;;;;;;;1.09;81.52;95860.95;1740319;82;21111;-85
2020/12/13 06:19:53;;;;;;;18.73;12.53;;;;;;;1.07;81.68;95858.53;1733561;82;21099;-85
2020/12/13 06:22:21;;;;;;;21.65;12.90;;;;;;;1.10;81.81;95856.97;1734793;80;21082;-85
2020/12/13 06:24:47;;;;;;;18.35;12.37;;;;;;;1.12;81.64;95855.08;1727039;82;21138;-85
2020/12/13 06:27:13;;;;;;;18.45;13.08;;;;;;;1.09;81.48;95863.50;1749994;82;21122;-85
2020/12/13 06:29:44;;;;;;;21.93;12.60;;;;;;;1.10;81.73;95865.92;1726427;82;21313;-86
2020/12/13 06:32:10;;;;;;;20.50;13.43;;;;;;;1.15;81.68;95857.86;1751281;82;21141;-85
2020/12/13 06:34:36;;;;;;;21.25;12.98;;;;;;;1.11;81.50;95865.45;1745465;82;21111;-85
2020/12/13 06:37:04;;;;;;;21.17;14.53;;;;;;;1.08;81.61;95867.81;1746988;81;21110;-85
2020/12/13 06:39:30;;;;;;;18.60;13.40;;;;;;;1.08;81.58;95872.13;1734035;80;21244;-86
2020/12/13 06:41:59;;;;;;;19.42;12.90;;;;;;;1.11;81.59;95868.01;1736295;82;21106;-85
2020/12/13 06:44:25;;;;;;;17.48;13.10;;;;;;;1.12;81.28;95874.27;1692578;83;21109;-86
2020/12/13 06:46:51;;;;;;;20.17;13.60;;;;;;;1.13;81.35;95872.05;1689460;82;21142;-85
2020/12/13 06:49:18;;;;;;;19.57;12.98;;;;;;;1.11;81.23;95879.52;1739982;80;21107;-86
2020/12/13 06:51:46;;;;;;;27.90;18.00;;;;;;;1.08;81.38;95875.49;1739075;80;21147;-85
2020/12/13 06:54:17;;;;;;;34.58;21.40;;;;;;;1.10;81.52;95877.91;1715479;82;21083;-85
2020/12/13 06:56:45;;;;;;;54.35;32.20;;;;;;;1.08;81.44;95883.17;1721600;81;21376;-86
2020/12/13 06:59:11;;;;;;;51.18;32.08;;;;;;;1.07;81.33;95875.16;1712203;82;21083;-86
2020/12/13 07:01:40;;;;;;;55.10;33.88;;;;;;;1.04;81.32;95887.42;1713523;81;21614;-85
2020/12/13 07:04:29;;;;;;;59.93;34.13;;;;;;;0.99;81.35;95895.50;1723342;82;21123;-85
2020/12/13 07:07:10;;;;;;;66.10;35.35;;;;;;;0.89;81.44;95895.96;1711490;82;21368;-84
2020/12/13 07:09:34;;;;;;;63.83;37.53;;;;;;;0.86;81.42;95902.63;1725960;81;21241;-85
2020/12/13 07:12:01;;;;;;;66.62;38.28;;;;;;;0.81;81.46;95902.20;1712605;82;21107;-86
2020/12/13 07:14:30;;;;;;;72.20;39.38;;;;;;;0.82;81.65;95907.21;1717051;82;21257;-84
2020/12/13 07:19:30;;;;;;;;;;;;;;;0.78;81.76;95906.30;1730601;81;21118;-85
2020/12/13 07:22:10;;;;;;;69.95;39.23;;;;;;;0.71;81.66;95913.71;1721478;81;20428;-85
2020/12/13 07:24:37;;;;;;;75.78;40.25;;;;;;;0.67;81.74;95917.48;1701203;84;21106;-86
2020/12/13 07:27:03;;;;;;;70.75;37.48;;;;;;;0.65;81.73;95918.53;1722464;81;21106;-86
2020/12/13 07:29:30;;;;;;;71.30;40.65;;;;;;;0.64;81.78;95920.75;1717623;82;21336;-87
2020/12/13 07:31:56;;;;;;;75.32;41.80;;;;;;;0.59;81.98;95920.69;1735194;82;21322;-85
2020/12/13 07:34:22;;;;;;;74.37;40.50;;;;;;;0.58;82.06;95925.45;1715892;81;21150;-86
2020/12/13 07:36:48;;;;;;;70.85;41.83;;;;;;;0.58;82.20;95929.30;1713127;82;21114;-86
2020/12/13 07:39:15;;;;;;;69.77;39.42;;;;;;;0.61;82.27;95930.77;1727415;82;21131;-86
2020/12/13 07:41:42;;;;;;;65.50;37.10;;;;;;;0.65;82.26;95934.71;1724464;81;21146;-86
2020/12/13 07:44:12;;;;;;;68.00;38.40;;;;;;;0.67;82.21;95930.73;1729560;81;21119;-84
2020/12/13 07:46:40;;;;;;;58.33;33.92;;;;;;;0.69;82.28;95941.64;1698746;83;21130;-85
2020/12/13 07:49:18;;;;;;;57.85;35.73;;;;;;;0.63;82.10;95941.67;1713123;82;21146;-85
2020/12/13 07:51:46;;;;;;;60.15;34.75;;;;;;;0.61;82.33;95942.28;1719169;82;21498;-84
2020/12/13 07:54:22;;;;;;;53.20;31.80;;;;;;;0.62;82.19;95945.17;1715188;82;21276;-84
2020/12/13 07:56:58;;;;;;;65.32;35.03;;;;;;;0.58;82.10;95948.47;1719198;82;21111;-84
2020/12/13 07:59:27;;;;;;;57.20;35.88;;;;;;;0.56;82.19;95937.56;1711660;82;21103;-83
2020/12/13 08:01:56;;;;;;;55.88;35.52;;;;;;;0.54;82.33;95944.56;1725210;81;21519;-84
2020/12/13 08:04:36;;;;;;;56.80;32.83;;;;;;;0.53;82.55;95944.22;1712984;81;21115;-83
2020/12/13 08:07:10;;;;;;;63.40;32.48;;;;;;;0.58;82.64;95951.02;1706102;82;21118;-84
2020/12/13 08:09:38;;;;;;;62.40;37.23;;;;;;;0.69;82.56;95950.12;1709069;84;21122;-84
2020/12/13 08:12:05;;;;;;;55.30;33.42;;;;;;;0.74;82.42;95946.69;1704744;84;21268;-84
2020/12/13 08:14:32;;;;;;;54.55;35.68;;;;;;;0.75;82.53;95951.33;1692725;82;21102;-83
2020/12/13 08:16:58;;;;;;;60.28;37.28;;;;;;;0.79;82.64;95954.77;1691552;84;21260;-84
2020/12/13 08:19:32;;;;;;;73.10;43.58;;;;;;;0.84;82.52;95957.75;1698006;82;21126;-84
2020/12/13 08:22:04;;;;;;;78.83;46.80;;;;;;;0.83;82.30;95959.98;1705412;82;21236;-83
2020/12/13 08:24:30;;;;;;;65.62;40.08;;;;;;;0.86;82.18;95966.57;1710435;82;21130;-84
2020/12/13 08:26:58;;;;;;;72.27;43.80;;;;;;;0.84;82.23;95962.88;1690846;84;21240;-84
2020/12/13 08:29:25;;;;;;;80.85;48.52;;;;;;;0.83;82.23;95965.56;1697990;83;21329;-84
2020/12/13 08:31:51;;;;;;;71.37;39.85;;;;;;;0.82;82.38;95966.03;1702057;84;21090;-84
2020/12/13 08:34:29;;;;;;;61.85;33.90;;;;;;;0.88;82.46;95963.41;1707774;82;21083;-84
2020/12/13 08:36:59;;;;;;;60.75;36.45;;;;;;;0.83;81.95;95970.68;1702989;84;21142;-83
2020/12/13 08:39:31;;;;;;;55.92;35.43;;;;;;;0.73;81.90;95981.34;1696559;83;21119;-84
2020/12/13 08:42:00;;;;;;;60.28;34.38;;;;;;;0.67;81.96;95981.41;1691093;84;21129;-84
2020/12/13 08:44:36;;;;;;;55.48;33.90;;;;;;;0.58;82.28;95982.17;1702916;82;21337;-84
2020/12/13 08:47:05;;;;;;;61.25;34.88;;;;;;;0.54;82.36;95985.47;1691196;84;21107;-85
2020/12/13 08:49:36;;;;;;;61.90;35.43;;;;;;;0.53;82.40;95989.44;1684952;83;21181;-85
2020/12/13 08:52:25;;;;;;;49.77;30.33;;;;;;;0.52;82.38;95986.54;1704263;82;21256;-85
2020/12/13 08:55:05;;;;;;;64.75;36.75;;;;;;;0.53;82.43;95991.52;1811814;77;23039;-85
2020/12/13 08:57:45;;;;;;;55.40;33.42;;;;;;;0.47;82.54;95995.05;1778194;79;21114;-84
2020/12/13 09:00:10;;;;;;;64.47;34.48;;;;;;;0.40;82.51;96001.16;1794562;79;21126;-84
2020/12/13 09:02:36;;;;;;;91.55;60.05;;;;;;;0.35;82.60;95996.91;1796824;78;21120;-84
2020/12/13 09:05:05;;;;;;;89.20;59.95;;;;;;;0.36;82.70;95995.16;1758291;80;21122;-84
2020/12/13 09:07:31;;;;;;;105.55;71.33;;;;;;;0.41;82.62;95995.10;1804943;79;21379;-85
2020/12/13 09:10:13;;;;;;;91.95;57.38;;;;;;;0.38;82.61;95992.80;1811665;78;21146;-84
2020/12/13 09:12:40;;;;;;;65.57;37.40;;;;;;;0.37;82.78;95992.47;1784130;79;21078;-84
2020/12/13 09:15:16;;;;;;;64.70;36.23;;;;;;;0.35;82.92;95994.81;1784816;80;21130;-85
2020/12/13 09:17:56;;;;;;;56.48;35.08;;;;;;;0.39;83.07;95993.14;1790676;79;21252;-84
2020/12/13 09:20:28;;;;;;;70.80;45.73;;;;;;;0.45;83.03;95995.64;1782865;80;21353;-84
2020/12/13 09:23:10;;;;;;;70.67;48.13;;;;;;;0.50;83.14;95995.62;1774609;80;21122;-86
2020/12/13 09:25:44;;;;;;;76.75;46.75;;;;;;;0.59;83.23;95998.66;1782680;80;21125;-86
2020/12/13 09:28:12;;;;;;;58.83;34.58;;;;;;;0.67;83.21;95999.78;1766586;80;21137;-84
2020/12/13 09:30:38;;;;;;;60.50;38.70;;;;;;;0.66;83.13;96007.92;1772294;80;21363;-84
2020/12/13 09:33:04;;;;;;;60.78;42.67;;;;;;;0.70;83.00;96007.99;1784798;79;22248;-84
2020/12/13 09:35:31;;;;;;;72.37;48.13;;;;;;;0.70;82.88;96007.99;1799235;79;21231;-85
2020/12/13 09:37:59;;;;;;;67.80;42.35;;;;;;;0.78;83.02;96006.86;1792822;80;21384;-84
2020/12/13 09:40:25;;;;;;;69.90;43.90;;;;;;;0.83;83.07;96009.85;1791516;80;21102;-85
2020/12/13 09:42:55;;;;;;;69.32;45.30;;;;;;;0.93;83.23;96020.09;1779889;80;21219;-83
2020/12/13 09:45:22;;;;;;;84.37;57.40;;;;;;;0.97;83.01;96013.77;1796228;80;21312;-84
2020/12/13 09:47:48;;;;;;;89.77;58.38;;;;;;;1.01;82.67;96014.34;1781067;80;21117;-83
2020/12/13 09:50:17;;;;;;;62.48;38.23;;;;;;;1.06;82.65;96012.18;1774857;80;21108;-84
2020/12/13 09:52:42;;;;;;;48.55;31.33;;;;;;;1.06;82.35;96008.34;1790901;79;21243;-84
2020/12/13 09:55:09;;;;;;;51.33;32.08;;;;;;;1.07;82.42;96011.23;1772774;80;21118;-84
2020/12/13 09:57:36;;;;;;;53.02;31.02;;;;;;;1.09;82.44;96007.59;1766950;81;21087;-84
2020/12/13 10:00:04;;;;;;;49.63;31.02;;;;;;;1.11;82.34;96009.55;1772001;81;21257;-84
2020/12/13 10:02:30;;;;;;;45.00;27.58;;;;;;;1.17;82.28;96006.48;1775919;81;21126;-83
2020/12/13 10:04:56;;;;;;;30.12;20.52;;;;;;;1.18;82.00;96005.54;1764476;81;21373;-84
2020/12/13 10:08:56;;;;;;;32.10;19.60;;;;;;;1.18;81.87;96004.26;1730095;81;21245;-82
2020/12/13 10:09:59;;;;;;;32.30;20.40;;;;;;;1.17;81.94;95999.28;1772694;81;21122;-82
2020/12/13 10:12:25;;;;;;;30.90;20.57;;;;;;;1.26;82.28;96005.33;1794650;78;21090;-84
2020/12/13 10:14:52;;;;;;;28.32;17.50;;;;;;;1.28;82.07;95999.13;1770534;81;21146;-83
2020/12/13 10:17:20;;;;;;;25.37;16.23;;;;;;;1.29;82.21;95997.38;1764073;81;21328;-82
2020/12/13 10:19:46;;;;;;;21.48;15.55;;;;;;;1.33;82.10;95992.36;1754954;80;21471;-83
2020/12/13 10:22:12;;;;;;;25.82;16.77;;;;;;;1.29;81.74;95987.95;1762400;81;21087;-83
2020/12/13 10:24:38;;;;;;;33.58;19.80;;;;;;;1.30;81.82;95993.88;1765097;81;21141;-82
2020/12/13 10:27:05;;;;;;;27.32;16.77;;;;;;;1.32;82.01;95998.42;1770715;81;21138;-84
2020/12/13 10:29:31;;;;;;;34.80;23.02;;;;;;;1.27;81.83;95988.55;1768935;81;21095;-83
2020/12/13 10:31:57;;;;;;;45.63;28.80;;;;;;;1.30;82.02;96000.27;1756566;80;21081;-83
2020/12/13 10:34:23;;;;;;;35.13;24.10;;;;;;;1.29;81.92;96003.78;1768568;81;21381;-83
2020/12/13 10:36:50;;;;;;;28.30;19.60;;;;;;;1.27;81.86;96007.75;1730150;81;21246;-83
2020/12/13 10:39:19;;;;;;;47.33;30.95;;;;;;;1.26;81.86;96008.70;1755841;81;21131;-82
2020/12/13 10:41:44;;;;;;;40.60;22.20;;;;;;;1.31;82.04;96013.44;1718416;81;21913;-83
2020/12/13 10:44:10;;;;;;;39.05;22.05;;;;;;;1.32;81.93;96015.05;1762996;81;21173;-84
2020/12/13 10:46:38;;;;;;;34.15;21.05;;;;;;;1.30;81.98;96018.19;1751725;81;21105;-82
2020/12/13 10:49:04;;;;;;;34.43;21.82;;;;;;;1.27;81.82;96018.47;1771692;81;21301;-82
2020/12/13 10:51:30;;;;;;;30.65;19.42;;;;;;;1.26;81.84;96019.41;1764116;81;21226;-82
2020/12/13 10:53:58;;;;;;;43.25;25.95;;;;;;;1.30;81.89;96019.47;1764098;80;21348;-84
2020/12/13 10:56:24;;;;;;;50.38;30.62;;;;;;;1.35;81.94;96016.88;1773572;79;21225;-83
2020/12/13 10:58:50;;;;;;;38.92;26.40;;;;;;;1.35;81.80;96017.34;1832702;77;21221;-82
2020/12/13 11:01:17;;;;;;;35.73;24.05;;;;;;;1.32;81.90;96016.34;1842394;77;21419;-83
2020/12/13 11:03:43;;;;;;;33.75;23.30;;;;;;;1.30;82.04;96020.31;1832391;77;21098;-83
2020/12/13 11:06:09;;;;;;;35.65;22.42;;;;;;;1.32;82.04;96018.89;1760817;78;21105;-83
2020/12/13 11:08:36;;;;;;;34.00;21.50;;;;;;;1.21;81.35;96012.14;1806218;79;21134;-84
2020/12/13 11:11:02;;;;;;;37.30;23.95;;;;;;;1.19;81.77;96008.91;1809862;78;21643;-83
2020/12/13 11:13:28;;;;;;;44.63;25.32;;;;;;;1.19;81.83;96005.88;1809866;78;21106;-84
2020/12/13 11:15:54;;;;;;;41.65;25.70;;;;;;;1.22;81.94;96010.38;1808625;78;21375;-82
2020/12/13 11:18:21;;;;;;;40.83;27.42;;;;;;;1.24;82.11;96010.59;1843041;77;21117;-82
2020/12/13 11:20:50;;;;;;;36.10;24.87;;;;;;;1.25;82.11;96008.83;1776515;77;21140;-82
2020/12/13 11:23:16;;;;;;;41.33;28.35;;;;;;;1.35;82.06;96019.43;1826903;77;21120;-82
2020/12/13 11:25:42;;;;;;;43.68;34.27;;;;;;;1.40;82.02;96012.15;1831367;77;21217;-84
2020/12/13 11:28:08;;;;;;;33.33;25.10;;;;;;;1.40;81.91;96009.59;1839664;77;21089;-83
2020/12/13 11:30:34;;;;;;;28.07;19.82;;;;;;;1.40;81.94;96009.59;1830976;77;21078;-83
2020/12/13 11:33:00;;;;;;;30.50;21.42;;;;;;;1.39;81.90;96012.28;1832696;77;21448;-84
2020/12/13 11:35:26;;;;;;;33.20;21.10;;;;;;;1.30;81.82;96011.79;1760944;80;21095;-83
2020/12/13 11:37:53;;;;;;;36.80;22.25;;;;;;;1.26;81.80;96012.53;1774718;80;21086;-85